メインページ
METAR-TAF:

METAR-TAF

空港 :

マタベリ国際空港

イースター島, チリ

緯度: 27-09S, 経度: 109-25W, 海抜: 51m

現時点の気象観測

当レポートは44分前の11:00(UTC)に作成
東/南東の風 3kt、東/北東から南東の間で変化する
気温 13°C
湿度 88%
気圧 1014 hPa
視程10km以上
高度2500ftの雲はほとんどない
高度5000ftの雲は散在している
高度25000ftの千切れ雲あり

METAR: SCIP 221100Z 11003KT 070V130 9999 FEW025 SCT050 BKN250 13/11 Q1014 NOSIG

時間: 05:44 (11:44 UTC)

予報

当レポートは1時間1分前の10:43(UTC)に作成
予報は22日の 12時(UTC)から 23日の 12時(UTC)まで有効
東/南東の風 5kt
視程10km以上
高度2000ftの雲は散在している
高度5000ftの千切れ雲あり
22日の 13時(UTC)から 22日の 15時(UTC)まで徐々に
北西の風 12kt
22日の 17時(UTC)から 22日の 18時(UTC)まで一時的に
北/北西の風 17kt
視程: 7000m
高度2000ftの千切れ雲あり
弱いにわか雨
22日の 19時(UTC)から 22日の 21時(UTC)まで徐々に
北西の風 20kt
視程: 6000m
高度1800ftの雲は散在している
高度3000ftの千切れ雲あり
にわか雨
22日の 22時(UTC)から 23日の 06時(UTC)まで一時的に
西の風 25kt、最大35ktの突風を伴う
視程: 4000m
高度800ftの雲はほとんどない, 積乱雲.
高度1500ftの雲は散在している
高度2000ftの千切れ雲あり
23日の 07時(UTC)から 23日の 09時(UTC)まで徐々に
西の風 27kt、最大37ktの突風を伴う
高度1800ftの雲はほとんどない
高度3000ftの雲は散在している

TAF: SCIP 221043Z 2212/2312 11005KT 9999 SCT020 BKN050 TX23/2219Z TN19/2310Z BECMG 2213/2215 31012KT TEMPO 2217/2218 34017KT 7000 -SHRA BKN020 BECMG 2219/2221 31020KT 6000 SHRA SCT018 BKN030 TEMPO 2222/2306 28025G35KT 4000 TSRA/SHRA FEW008CB SCT015 BKN020 BECMG 2307/2309 28027G37KT FEW018 SCT030

4,000以上の空港の気象観測と天気予報(METAR報とTAF報)

利用可能な観測所は地図上に黄色い丸と赤い丸で示す。

丸の上にカーソルを重ねると観測所名を参照できる。

次にクリックすると気象観測と天気予報を参照できる。

マップの切り替え:黒色「×」印の緑ボタンをクリックして拡大、「-」印の緑ボタンをクリックして縮小、緑色の三角印をクリックして隣りの地図に切り替え


METAR-TAF: